logo
Rechercher aéroport 
image banner adimage banner adimage banner ad
image banner ad

FAWR - Wavecrest

Situé à Wavecrest, South Africa

ICAO - FAWR, IATA -

Données fournies par Airmate  

Information générale

Coordonnées: S32°35'24" E28°31'8"
Élévation : 88 feet MSL.
Variation magnétique : -29° East
Voir autres Aéroports à Eastern Cape

Données opérationnelles

Special qualification required
Heure actuelle UTC:
Heure actuelle locale:
Météo à : - ( 0 km )
METAR: TJBQ 282050Z 10003KT 10SM VCTS SCT039 SCT055 BKN090 24/23 A3000 RMK LTG DSNT NW
Voir NOTAMs / SUP AIP / TFR affectant cet aéroport [VIEW]
Fréquences de communication: [VIEW]

Pistes:

Identifiant RWYQFULongueur (ft)Largeur (ft)SurfaceLDA (ft)
07153°196933GRASS
25333°196933GRASS

Coordonnées de l'aéroport

Adresse: Wavecrest South Africa

Vue satellite de FAWR